Orbital elements of FENGYUN 1C DEB
| Launched | 9 May 1999 |
| Flight ended | – |
| Launch site | Taiyuan Space Center, PRC |
| Owner | People's Republic of China |
| NORAD ID | 29734 |
| Date fetched |
Epoch osculation |
Inc. [°] |
Ecc. | RA asc node [hr] |
Arg Peri. [°] |
Mean anom [°] |
Mean motion [rev/day] |
Abs. mag |
| Date fetched |
Epoch osculation |
Inc. [°] |
Ecc. | RA asc node [hr] |
Arg Peri. [°] |
Mean anom [°] |
Mean motion [rev/day] |
Abs. mag |
| 2026 May 03 17:57 | 2026 Apr 30 13:23:10 | 99.1715 | 0.06157 | 2.1861 | 53.2594 | 65.5411 | 12.91793 | – |
| 2026 May 02 17:57 | 2026 Apr 30 13:23:10 | 99.1715 | 0.06157 | 2.1861 | 53.2594 | 65.5411 | 12.91793 | – |
| 2026 May 01 17:56 | 2026 Apr 30 13:23:10 | 99.1715 | 0.06157 | 2.1861 | 53.2594 | 65.5411 | 12.91793 | – |
| 2026 Apr 30 17:56 | 2026 Apr 30 13:23:10 | 99.1715 | 0.06157 | 2.1861 | 53.2594 | 65.5411 | 12.91793 | – |
| 2026 Apr 29 17:57 | 2026 Apr 24 10:15:48 | 99.1715 | 0.06149 | 1.8441 | 67.2280 | 65.5411 | 12.91793 | – |
| 2026 Apr 28 17:56 | 2026 Apr 24 10:15:48 | 99.1715 | 0.06149 | 1.8441 | 67.2280 | 65.5411 | 12.91793 | – |
| 2026 Apr 27 17:58 | 2026 Apr 24 10:15:48 | 99.1715 | 0.06149 | 1.8441 | 67.2280 | 65.5411 | 12.91793 | – |
| 2026 Apr 26 17:58 | 2026 Apr 24 10:15:48 | 99.1715 | 0.06149 | 1.8441 | 67.2280 | 65.5411 | 12.91793 | – |
| 2026 Apr 25 17:58 | 2026 Apr 24 10:15:48 | 99.1715 | 0.06149 | 1.8441 | 67.2280 | 65.5411 | 12.91793 | – |
| 2026 Apr 24 17:59 | 2026 Apr 24 10:15:48 | 99.1715 | 0.06149 | 1.8441 | 67.2280 | 65.5411 | 12.91793 | – |
| 2026 Apr 23 17:57 | 2026 Apr 19 11:51:29 | 99.1713 | 0.06140 | 1.5688 | 78.4925 | 65.5411 | 12.91793 | – |
| 2026 Apr 22 17:57 | 2026 Apr 19 11:51:29 | 99.1713 | 0.06140 | 1.5688 | 78.4925 | 65.5411 | 12.91793 | – |
| 2026 Apr 21 17:57 | 2026 Apr 19 11:51:29 | 99.1713 | 0.06140 | 1.5688 | 78.4925 | 65.5411 | 12.91793 | – |
| 2026 Apr 20 17:57 | 2026 Apr 19 11:51:29 | 99.1713 | 0.06140 | 1.5688 | 78.4925 | 65.5411 | 12.91793 | – |
| 2026 Apr 19 17:58 | 2026 Apr 19 11:51:29 | 99.1713 | 0.06140 | 1.5688 | 78.4925 | 65.5411 | 12.91793 | – |
| 2026 Apr 18 17:56 | 2026 Apr 12 17:32:36 | 99.1711 | 0.06125 | 1.1915 | 93.9644 | 65.5411 | 12.91793 | – |
| 2026 Apr 16 17:57 | 2026 Apr 12 17:32:36 | 99.1711 | 0.06125 | 1.1915 | 93.9644 | 65.5411 | 12.91793 | – |
| 2026 Apr 14 17:57 | 2026 Apr 12 17:32:36 | 99.1711 | 0.06125 | 1.1915 | 93.9644 | 65.5411 | 12.91793 | – |
| 2026 Apr 13 17:57 | 2026 Apr 12 17:32:36 | 99.1711 | 0.06125 | 1.1915 | 93.9644 | 65.5411 | 12.91793 | – |
| 2026 Apr 12 17:57 | 2026 Apr 08 06:12:24 | 99.1709 | 0.06116 | 0.9421 | 104.2158 | 65.5411 | 12.91793 | – |
| 2026 Apr 11 17:57 | 2026 Apr 08 06:12:24 | 99.1709 | 0.06116 | 0.9421 | 104.2158 | 65.5411 | 12.91793 | – |
| 2026 Apr 10 17:58 | 2026 Apr 08 06:12:24 | 99.1709 | 0.06116 | 0.9421 | 104.2158 | 65.5411 | 12.91793 | – |
| 2026 Apr 09 18:01 | 2026 Apr 08 06:12:24 | 99.1709 | 0.06116 | 0.9421 | 104.2158 | 65.5411 | 12.91793 | – |
| 2026 Apr 08 17:57 | 2026 Apr 08 06:12:24 | 99.1709 | 0.06116 | 0.9421 | 104.2158 | 65.5411 | 12.91793 | – |
| 2026 Apr 07 17:57 | 2026 Apr 01 12:35:59 | 99.1711 | 0.06101 | 0.5665 | 119.6941 | 65.5411 | 12.91793 | – |
| 2026 Apr 06 17:57 | 2026 Apr 01 12:35:59 | 99.1711 | 0.06101 | 0.5665 | 119.6941 | 65.5411 | 12.91793 | – |